Webcam Flughafen St.Gallen-Altenrhein

Live-Bilder und Zeitraffer LSZR / ACH.

 

Live aus Altenrhein
LIVE
LSZR 211520Z VRB02KT CAVOK 12/01 Q1028 NOSIG RMK K
Zeitraffer heute
2019-02-21 00:14:20
LSZR 202250Z AUTO 27002KT 7000 NCD 01/01 Q1027
Zeitraffer gestern
2019-02-20 00:14:50
LSZR 192250Z AUTO 28006KT 9999 BKN080 SCT100 06/03 Q1022
Zeitraffer vor 3 Tagen
2019-02-18 00:14:55
LSZR 172250Z AUTO 22002KT CAVOK M02/M03 Q1024